createdAt,value
2017-11-07T00:01:01.498Z,22.52
2017-11-07T00:03:29.033Z,17.33
2017-11-07T00:05:57.368Z,18.35
2017-11-07T00:08:24.933Z,16.95
2017-11-07T00:10:52.464Z,21.85
2017-11-07T00:13:20.022Z,24.70
2017-11-07T00:15:47.565Z,20.45
2017-11-07T00:18:15.124Z,16.25
2017-11-07T00:20:43.436Z,17.42
2017-11-07T00:23:10.983Z,27.90
2017-11-07T00:25:38.555Z,22.15
2017-11-07T00:28:06.081Z,19.10
2017-11-07T00:30:34.416Z,22.42
2017-11-07T00:33:01.956Z,16.02
2017-11-07T00:35:29.528Z,16.27
2017-11-07T00:37:57.067Z,20.52
2017-11-07T00:40:24.636Z,14.20
2017-11-07T00:42:52.158Z,13.93
2017-11-07T00:45:20.453Z,15.43
2017-11-07T00:47:48.785Z,13.48
2017-11-07T00:50:16.304Z,18.20
2017-11-07T00:52:43.868Z,11.68
2017-11-07T00:55:11.407Z,11.73
2017-11-07T00:57:39.715Z,12.82
2017-11-07T01:00:07.296Z,13.82
2017-11-07T01:02:34.825Z,12.02
2017-11-07T01:05:02.374Z,16.62
2017-11-07T01:07:30.679Z,13.50
2017-11-07T01:09:58.252Z,17.55
2017-11-07T01:12:25.791Z,9.05
2017-11-07T01:14:53.336Z,15.88
2017-11-07T01:17:21.667Z,15.23
2017-11-07T01:19:49.215Z,11.07
2017-11-07T01:22:16.762Z,20.27
2017-11-07T01:24:44.308Z,20.48
2017-11-07T01:27:12.639Z,14.90
2017-11-07T01:29:40.194Z,15.48
2017-11-07T01:32:08.500Z,16.42
2017-11-07T01:34:36.121Z,19.83
2017-11-07T01:37:03.668Z,17.02
2017-11-07T01:39:31.231Z,13.55
2017-11-07T01:41:58.754Z,17.27
2017-11-07T01:44:26.277Z,11.40
2017-11-07T01:46:53.844Z,19.70
2017-11-07T01:49:21.385Z,11.00
2017-11-07T01:51:48.960Z,13.40
2017-11-07T01:54:16.483Z,13.23
2017-11-07T01:56:44.774Z,8.85
2017-11-07T01:59:12.341Z,12.95
2017-11-07T02:01:39.884Z,26.75
2017-11-07T02:04:08.210Z,9.40
2017-11-07T02:06:35.744Z,11.12
2017-11-07T02:09:03.313Z,20.90
2017-11-07T02:11:30.862Z,12.98
2017-11-07T02:13:58.389Z,8.65
2017-11-07T02:16:25.966Z,11.63
2017-11-07T02:18:54.271Z,11.40
2017-11-07T02:21:21.811Z,6.80
2017-11-07T02:23:50.132Z,6.35
2017-11-07T02:26:17.650Z,7.60
2017-11-07T02:28:45.958Z,8.23
2017-11-07T02:31:13.490Z,16.65
2017-11-07T02:33:41.817Z,11.05
2017-11-07T02:36:09.338Z,9.18
2017-11-07T02:38:36.865Z,7.78
2017-11-07T02:41:04.417Z,8.60
2017-11-07T02:43:31.938Z,12.82
2017-11-07T02:45:59.492Z,7.50
2017-11-07T02:48:27.024Z,8.82
2017-11-07T02:50:55.356Z,10.52
2017-11-07T02:53:22.877Z,8.30
2017-11-07T02:55:51.165Z,7.80
2017-11-07T02:58:18.731Z,8.55
2017-11-07T03:00:46.260Z,23.38
2017-11-07T03:03:13.841Z,12.85
2017-11-07T03:05:41.390Z,22.05
2017-11-07T03:08:09.704Z,37.72
2017-11-07T03:10:37.250Z,9.27
2017-11-07T03:13:04.776Z,13.35
2017-11-07T03:15:32.321Z,18.35
2017-11-07T03:17:59.854Z,18.23
2017-11-07T03:20:27.418Z,26.45
2017-11-07T03:22:54.950Z,25.17
2017-11-07T03:25:23.262Z,13.55
2017-11-07T03:27:50.821Z,12.70
2017-11-07T03:30:18.398Z,24.58
2017-11-07T03:32:45.983Z,13.40
2017-11-07T03:35:13.557Z,15.80
2017-11-07T03:37:41.902Z,19.20
2017-11-07T03:40:09.484Z,17.83
2017-11-07T03:42:37.087Z,26.90
2017-11-07T03:45:04.665Z,10.52
2017-11-07T03:47:32.258Z,31.80
2017-11-07T03:49:59.847Z,24.60
2017-11-07T03:52:27.429Z,24.67
2017-11-07T03:54:55.786Z,38.90
2017-11-07T03:57:24.118Z,21.23
2017-11-07T03:59:51.683Z,16.45
2017-11-07T04:02:19.275Z,18.75
2017-11-07T04:04:46.826Z,26.65
2017-11-07T04:07:14.411Z,18.25
2017-11-07T04:09:41.964Z,15.23
2017-11-07T04:12:09.543Z,17.45
2017-11-07T04:14:37.124Z,23.58
2017-11-07T04:17:05.455Z,16.77
2017-11-07T04:19:33.053Z,21.67
2017-11-07T04:22:01.392Z,33.20
2017-11-07T04:24:28.983Z,41.15
2017-11-07T04:26:56.564Z,16.85
2017-11-07T04:29:24.917Z,20.12
2017-11-07T04:31:52.512Z,36.92
2017-11-07T04:34:20.858Z,43.25
2017-11-07T04:36:48.451Z,27.65
2017-11-07T04:39:16.786Z,14.10
2017-11-07T04:41:44.367Z,13.52
2017-11-07T04:44:11.923Z,14.48
2017-11-07T04:46:39.502Z,16.60
2017-11-07T04:49:07.058Z,15.00
2017-11-07T04:51:34.655Z,22.92
2017-11-07T04:54:02.234Z,29.95
2017-11-07T04:56:29.839Z,19.37
2017-11-07T04:58:57.420Z,21.50
2017-11-07T05:01:25.769Z,15.32
2017-11-07T05:03:53.369Z,25.35
2017-11-07T05:06:21.704Z,19.12
2017-11-07T05:08:49.291Z,46.67
2017-11-07T05:11:16.860Z,19.25
2017-11-07T05:13:44.463Z,30.90
2017-11-07T05:16:12.052Z,22.17
2017-11-07T05:18:39.623Z,24.35
2017-11-07T05:21:07.206Z,38.60
2017-11-07T05:23:34.775Z,17.35
2017-11-07T05:26:03.209Z,27.17
2017-11-07T05:28:30.779Z,32.05
2017-11-07T05:30:58.377Z,16.85
2017-11-07T05:33:25.934Z,25.65
2017-11-07T05:35:53.514Z,19.73
2017-11-07T05:38:21.861Z,18.50
2017-11-07T05:40:50.195Z,21.48
2017-11-07T05:43:17.802Z,25.17
2017-11-07T05:45:45.385Z,17.67
2017-11-07T05:48:12.976Z,21.02
2017-11-07T05:50:40.555Z,45.75
2017-11-07T05:53:08.171Z,17.70
2017-11-07T05:55:36.499Z,49.90
2017-11-07T05:58:04.092Z,22.62
2017-11-07T06:00:31.697Z,27.05
2017-11-07T06:03:00.062Z,74.95
2017-11-07T06:05:28.391Z,21.62
2017-11-07T06:07:56.427Z,33.22
2017-11-07T06:10:24.781Z,34.05
2017-11-07T06:12:52.368Z,23.30
2017-11-07T06:15:20.714Z,31.55
2017-11-07T06:17:48.288Z,27.00
2017-11-07T06:20:15.869Z,23.35
2017-11-07T06:22:44.232Z,30.88
2017-11-07T06:25:11.785Z,25.55
2017-11-07T06:27:39.399Z,15.85
2017-11-07T06:30:06.970Z,23.38
2017-11-07T06:32:34.558Z,38.28
2017-11-07T06:35:02.133Z,13.62
2017-11-07T06:37:30.748Z,12.45
2017-11-07T06:39:58.474Z,18.27
2017-11-07T06:42:27.579Z,17.98
2017-11-07T06:44:55.166Z,14.82
2017-11-07T06:47:23.507Z,27.77
2017-11-07T06:49:51.078Z,19.42
2017-11-07T06:52:18.661Z,23.77
2017-11-07T06:54:46.235Z,28.62
2017-11-07T06:57:14.606Z,91.18
2017-11-07T06:59:42.183Z,31.20
2017-11-07T07:02:10.566Z,43.63
2017-11-07T07:04:38.152Z,26.73
2017-11-07T07:07:05.732Z,34.15
2017-11-07T07:09:33.328Z,43.20
2017-11-07T07:12:00.904Z,32.63
2017-11-07T07:14:29.275Z,46.47
2017-11-07T07:16:56.841Z,40.58
2017-11-07T07:19:25.230Z,62.40
2017-11-07T07:21:53.595Z,43.75
2017-11-07T07:24:21.175Z,47.05
2017-11-07T07:26:49.520Z,44.42
2017-11-07T07:29:17.073Z,70.70
2017-11-07T07:31:44.666Z,38.28
2017-11-07T07:34:12.256Z,30.67
2017-11-07T07:36:40.613Z,31.15
2017-11-07T07:39:08.179Z,33.85
2017-11-07T07:41:36.513Z,30.10
2017-11-07T07:44:04.095Z,38.70
2017-11-07T07:46:31.682Z,26.50
2017-11-07T07:49:00.641Z,20.83
2017-11-07T07:51:28.230Z,19.37
2017-11-07T07:53:55.822Z,33.60
2017-11-07T07:56:23.423Z,34.30
2017-11-07T07:58:51.002Z,27.58
2017-11-07T08:01:18.614Z,19.92
2017-11-07T08:03:46.204Z,20.37
2017-11-07T08:06:13.795Z,20.23
2017-11-07T08:08:41.411Z,27.58
2017-11-07T08:11:09.037Z,22.27
2017-11-07T08:13:36.610Z,20.40
2017-11-07T08:16:04.941Z,18.20
2017-11-07T08:18:33.292Z,22.70
2017-11-07T08:21:00.935Z,27.90
2017-11-07T08:23:29.289Z,17.95
2017-11-07T08:25:56.885Z,30.08
2017-11-07T08:28:25.268Z,22.62
2017-11-07T08:30:53.616Z,32.78
2017-11-07T08:33:21.175Z,14.02
2017-11-07T08:35:48.781Z,45.58
2017-11-07T08:38:16.365Z,20.90
2017-11-07T08:40:43.995Z,27.37
2017-11-07T08:43:12.352Z,21.35
2017-11-07T08:45:39.986Z,26.52
2017-11-07T08:48:07.576Z,22.17
2017-11-07T08:50:35.156Z,20.00
2017-11-07T08:53:03.518Z,25.60
2017-11-07T08:55:31.112Z,20.83
2017-11-07T08:57:59.489Z,18.98
2017-11-07T09:00:27.855Z,23.00
2017-11-07T09:02:56.228Z,28.77
2017-11-07T09:05:23.838Z,22.70
2017-11-07T09:07:51.401Z,19.50
2017-11-07T09:10:18.978Z,20.37
2017-11-07T09:12:46.556Z,22.05
2017-11-07T09:15:14.189Z,24.67
2017-11-07T09:17:41.762Z,25.85
2017-11-07T09:20:09.447Z,33.28
2017-11-07T09:22:37.024Z,28.98
2017-11-07T09:25:05.377Z,28.83
2017-11-07T09:27:33.044Z,38.97
2017-11-07T09:30:02.218Z,28.17
2017-11-07T09:32:29.923Z,22.70
2017-11-07T09:34:57.494Z,26.00
2017-11-07T09:37:25.107Z,28.90
2017-11-07T09:39:52.687Z,25.48
2017-11-07T09:42:20.499Z,19.90
2017-11-07T09:44:48.283Z,17.98
2017-11-07T09:47:15.875Z,24.95
2017-11-07T09:49:43.464Z,21.73
2017-11-07T09:52:11.040Z,29.17
2017-11-07T09:54:38.647Z,26.48
2017-11-07T09:57:06.219Z,23.52
2017-11-07T09:59:33.805Z,23.60
2017-11-07T10:02:01.400Z,19.17
2017-11-07T10:04:28.989Z,23.55
2017-11-07T10:06:56.602Z,19.77
2017-11-07T10:09:24.210Z,23.83
2017-11-07T10:11:52.580Z,28.05
2017-11-07T10:14:20.897Z,26.73
2017-11-07T10:16:48.479Z,26.17
2017-11-07T10:19:16.098Z,35.38
2017-11-07T10:21:44.449Z,26.85
2017-11-07T10:24:12.046Z,35.00
2017-11-07T10:26:39.608Z,29.75
2017-11-07T10:29:07.220Z,43.58
2017-11-07T10:31:34.792Z,34.10
2017-11-07T10:34:02.364Z,45.00
2017-11-07T10:36:29.952Z,41.28
2017-11-07T10:38:58.286Z,47.72
2017-11-07T10:41:25.889Z,35.53
2017-11-07T10:43:54.206Z,41.20
2017-11-07T10:46:21.820Z,47.10
2017-11-07T10:48:50.175Z,35.92
2017-11-07T10:51:17.761Z,41.13
2017-11-07T10:53:46.102Z,43.38
2017-11-07T10:56:13.684Z,31.10
2017-11-07T10:58:41.267Z,36.30
2017-11-07T11:01:09.616Z,31.42
2017-11-07T11:03:37.227Z,34.70
2017-11-07T11:06:05.548Z,45.15
2017-11-07T11:08:33.123Z,30.80
2017-11-07T11:11:00.697Z,42.78
2017-11-07T11:13:28.315Z,35.30
2017-11-07T11:15:55.923Z,33.92
2017-11-07T11:18:23.484Z,31.58
2017-11-07T11:20:51.085Z,35.05
2017-11-07T11:23:18.665Z,26.08
2017-11-07T11:25:46.224Z,22.90
2017-11-07T11:28:13.807Z,23.33
2017-11-07T11:30:41.371Z,27.65
2017-11-07T11:33:08.967Z,26.42
2017-11-07T11:35:36.517Z,23.20
2017-11-07T11:38:04.125Z,19.62
2017-11-07T11:40:31.692Z,30.85
2017-11-07T11:42:59.271Z,24.80
2017-11-07T11:45:26.859Z,26.08
2017-11-07T11:47:54.409Z,18.85
2017-11-07T11:50:21.994Z,29.60
2017-11-07T11:52:49.562Z,22.83
2017-11-07T11:55:17.146Z,19.30
2017-11-07T11:57:45.464Z,26.73
2017-11-07T12:00:13.034Z,32.75
2017-11-07T12:02:40.613Z,23.90
2017-11-07T12:05:08.197Z,25.35
2017-11-07T12:07:36.567Z,22.95
2017-11-07T12:10:04.136Z,25.90
2017-11-07T12:12:31.743Z,27.52
2017-11-07T12:14:59.333Z,19.77
2017-11-07T12:17:26.904Z,25.27
2017-11-07T12:19:54.508Z,25.88
2017-11-07T12:22:22.097Z,19.30
2017-11-07T12:24:49.706Z,37.15
2017-11-07T12:27:17.275Z,23.27
2017-11-07T12:29:44.861Z,29.90
2017-11-07T12:32:13.218Z,27.27
2017-11-07T12:34:41.567Z,26.92
2017-11-07T12:37:09.924Z,28.60
2017-11-07T12:39:37.488Z,35.58
2017-11-07T12:42:05.084Z,41.35
2017-11-07T12:44:32.651Z,41.15
2017-11-07T12:47:00.244Z,29.83
2017-11-07T12:49:28.582Z,41.70
2017-11-07T12:51:58.561Z,34.60
2017-11-07T12:54:26.132Z,34.75
2017-11-07T12:56:53.728Z,40.35
2017-11-07T12:59:21.299Z,40.40
2017-11-07T13:01:48.903Z,34.25
2017-11-07T13:04:16.494Z,39.35
2017-11-07T13:06:44.089Z,33.30
2017-11-07T13:09:11.677Z,41.53
2017-11-07T13:11:40.871Z,47.28
2017-11-07T13:14:09.228Z,39.70
2017-11-07T13:16:36.872Z,38.47
2017-11-07T13:19:04.477Z,44.03
2017-11-07T13:21:32.815Z,49.17
2017-11-07T13:24:00.425Z,55.83
2017-11-07T13:26:28.745Z,39.85
2017-11-07T13:28:56.344Z,53.92
2017-11-07T13:31:23.898Z,50.85
2017-11-07T13:33:51.519Z,45.90
2017-11-07T13:36:19.076Z,50.63
2017-11-07T13:38:47.119Z,49.50
2017-11-07T13:41:15.505Z,42.28
2017-11-07T13:43:43.847Z,42.60
2017-11-07T13:46:11.451Z,49.03
2017-11-07T13:48:39.789Z,42.35
2017-11-07T13:51:07.373Z,38.28
2017-11-07T13:53:34.970Z,43.40
2017-11-07T13:56:02.547Z,38.78
2017-11-07T13:58:30.153Z,43.28
2017-11-07T14:00:57.737Z,49.55
2017-11-07T14:03:26.162Z,48.80
2017-11-07T14:05:53.802Z,42.62
2017-11-07T14:08:21.395Z,60.55
2017-11-07T14:10:48.978Z,41.10
2017-11-07T14:13:16.588Z,39.72
2017-11-07T14:15:44.167Z,43.42
2017-11-07T14:18:11.739Z,41.45
2017-11-07T14:20:39.347Z,37.10
2017-11-07T14:23:06.916Z,39.72
2017-11-07T14:25:35.275Z,44.50
2017-11-07T14:28:02.859Z,39.22
2017-11-07T14:30:31.238Z,42.72
2017-11-07T14:32:59.571Z,46.10
2017-11-07T14:35:27.128Z,38.92
2017-11-07T14:37:54.713Z,41.50
2017-11-07T14:40:22.267Z,46.35
2017-11-07T14:42:49.854Z,47.17
2017-11-07T14:45:17.437Z,44.65
2017-11-07T14:47:45.773Z,49.33
2017-11-07T14:50:13.348Z,44.63
2017-11-07T14:52:40.965Z,39.00
2017-11-07T14:55:08.521Z,39.45
2017-11-07T14:57:36.087Z,40.78
2017-11-07T15:00:03.683Z,47.05
2017-11-07T15:02:32.036Z,45.40
2017-11-07T15:04:59.610Z,47.40
2017-11-07T15:07:27.167Z,43.78
2017-11-07T15:09:54.759Z,46.55
2017-11-07T15:12:22.344Z,37.80
2017-11-07T15:14:49.960Z,40.75
2017-11-07T15:17:17.536Z,29.30
2017-11-07T15:19:45.108Z,44.08
2017-11-07T15:22:12.697Z,41.08
2017-11-07T15:24:41.029Z,42.95
2017-11-07T15:27:08.619Z,53.30
2017-11-07T15:29:36.194Z,40.00
2017-11-07T15:32:03.809Z,45.65
2017-11-07T15:34:31.383Z,45.50
2017-11-07T15:36:58.988Z,42.88
2017-11-07T15:39:27.350Z,42.28
2017-11-07T15:41:54.933Z,37.15
2017-11-07T15:44:23.295Z,50.28
2017-11-07T15:46:50.853Z,45.12
2017-11-07T15:49:19.211Z,36.55
2017-11-07T15:51:46.768Z,42.45
2017-11-07T15:54:14.381Z,39.15
2017-11-07T15:56:42.716Z,39.53
2017-11-07T15:59:10.311Z,52.35
2017-11-07T16:01:37.892Z,35.88
2017-11-07T16:04:06.216Z,42.67
2017-11-07T16:06:33.799Z,33.92
2017-11-07T16:09:01.367Z,39.25
2017-11-07T16:11:28.972Z,43.28
2017-11-07T16:13:56.546Z,36.17
2017-11-07T16:16:24.133Z,44.17
2017-11-07T16:18:51.771Z,42.90
2017-11-07T16:21:19.362Z,47.40
2017-11-07T16:23:46.961Z,41.90
2017-11-07T16:26:14.531Z,39.30
2017-11-07T16:28:42.879Z,37.70
2017-11-07T16:31:10.458Z,50.05
2017-11-07T16:33:38.074Z,54.25
2017-11-07T16:36:05.637Z,49.42
2017-11-07T16:38:33.228Z,47.45
2017-11-07T16:41:00.823Z,46.55
2017-11-07T16:43:29.162Z,53.80
2017-11-07T16:45:56.751Z,44.35
2017-11-07T16:48:24.319Z,46.15
2017-11-07T16:50:52.734Z,41.42
2017-11-07T16:53:20.313Z,37.60
2017-11-07T16:55:47.915Z,42.03
2017-11-07T16:58:15.492Z,46.05
2017-11-07T17:00:43.813Z,39.08
2017-11-07T17:03:11.393Z,50.35
2017-11-07T17:05:38.980Z,46.13
2017-11-07T17:08:06.586Z,62.80
2017-11-07T17:10:34.145Z,39.95
2017-11-07T17:13:01.749Z,51.22
2017-11-07T17:15:29.319Z,42.10
2017-11-07T17:17:57.791Z,40.78
2017-11-07T17:20:25.343Z,61.08
2017-11-07T17:22:52.918Z,43.13
2017-11-07T17:25:20.493Z,47.72
2017-11-07T17:27:48.065Z,52.83
2017-11-07T17:30:15.648Z,57.20
2017-11-07T17:32:43.248Z,50.08
2017-11-07T17:35:10.831Z,50.83
2017-11-07T17:37:38.385Z,61.67
2017-11-07T17:40:05.988Z,61.70
2017-11-07T17:42:34.420Z,49.92
2017-11-07T17:45:01.981Z,60.85
2017-11-07T17:47:29.561Z,52.47
2017-11-07T17:49:57.884Z,55.90
2017-11-07T17:52:26.253Z,71.70
2017-11-07T17:54:54.608Z,58.10
2017-11-07T17:57:22.961Z,52.72
2017-11-07T17:59:50.548Z,31.90
2017-11-07T18:02:18.118Z,53.58
2017-11-07T18:04:45.716Z,46.90
2017-11-07T18:07:14.069Z,32.97
2017-11-07T18:09:41.665Z,37.50
2017-11-07T18:12:09.239Z,36.88
2017-11-07T18:14:36.843Z,41.22
2017-11-07T18:17:04.424Z,52.53
2017-11-07T18:19:32.013Z,45.80
2017-11-07T18:21:59.584Z,51.35
2017-11-07T18:24:27.142Z,43.15
2017-11-07T18:26:54.737Z,51.53
2017-11-07T18:29:22.312Z,43.87
2017-11-07T18:31:49.889Z,42.38
2017-11-07T18:34:17.462Z,39.00
2017-11-07T18:36:46.909Z,37.42
2017-11-07T18:39:14.510Z,36.40
2017-11-07T18:41:42.111Z,31.10
2017-11-07T18:44:10.447Z,30.00
2017-11-07T18:46:38.041Z,30.52
2017-11-07T18:49:06.388Z,42.25
2017-11-07T18:51:33.977Z,35.33
2017-11-07T18:54:02.340Z,40.35
2017-11-07T18:56:30.661Z,43.55
2017-11-07T18:58:58.997Z,32.80
2017-11-07T19:01:26.561Z,33.17
2017-11-07T19:03:54.111Z,38.80
2017-11-07T19:06:21.705Z,35.90
2017-11-07T19:08:50.076Z,30.58
2017-11-07T19:11:17.691Z,34.03
2017-11-07T19:13:45.291Z,31.87
2017-11-07T19:16:12.898Z,42.45
2017-11-07T19:18:40.475Z,34.22
2017-11-07T19:21:08.068Z,33.03
2017-11-07T19:23:35.690Z,43.83
2017-11-07T19:26:03.278Z,39.25
2017-11-07T19:28:30.861Z,34.03
2017-11-07T19:30:58.491Z,34.10
2017-11-07T19:33:26.082Z,58.75
2017-11-07T19:35:53.653Z,37.70
2017-11-07T19:38:21.307Z,42.17
2017-11-07T19:40:48.896Z,52.88
2017-11-07T19:43:16.498Z,33.47
2017-11-07T19:45:44.090Z,45.35
2017-11-07T19:48:11.660Z,33.35
2017-11-07T19:50:39.243Z,40.40
2017-11-07T19:53:06.803Z,43.55
2017-11-07T19:55:34.419Z,38.95
2017-11-07T19:58:01.978Z,33.53
2017-11-07T20:00:29.550Z,45.65
2017-11-07T20:02:57.148Z,35.63
2017-11-07T20:05:24.747Z,34.78
2017-11-07T20:07:52.327Z,27.17
2017-11-07T20:10:19.913Z,28.77
2017-11-07T20:12:47.537Z,51.58
2017-11-07T20:15:15.117Z,38.63
2017-11-07T20:17:42.682Z,68.62
2017-11-07T20:20:10.287Z,63.42
2017-11-07T20:22:37.890Z,35.83
2017-11-07T20:25:05.507Z,32.20
2017-11-07T20:27:33.063Z,37.58
2017-11-07T20:30:00.662Z,44.60
2017-11-07T20:32:29.024Z,43.50
2017-11-07T20:34:57.382Z,41.60
2017-11-07T20:37:25.051Z,41.13
2017-11-07T20:39:52.638Z,41.78
2017-11-07T20:42:20.986Z,52.13
2017-11-07T20:44:48.555Z,47.22
2017-11-07T20:47:16.170Z,34.45
2017-11-07T20:49:43.739Z,43.03
2017-11-07T20:52:11.307Z,34.40
2017-11-07T20:54:38.896Z,45.35
2017-11-07T20:57:06.468Z,43.25
2017-11-07T20:59:34.086Z,47.13
2017-11-07T21:02:01.672Z,45.88
2017-11-07T21:04:29.276Z,49.58
2017-11-07T21:06:56.856Z,46.10
2017-11-07T21:09:25.180Z,37.50
2017-11-07T21:11:52.783Z,49.67
2017-11-07T21:14:21.106Z,43.50
2017-11-07T21:16:48.698Z,40.17
2017-11-07T21:19:16.266Z,46.70
2017-11-07T21:21:43.879Z,40.42
2017-11-07T21:24:11.462Z,45.40
2017-11-07T21:26:39.043Z,42.42
2017-11-07T21:29:06.685Z,35.45
2017-11-07T21:31:34.271Z,47.55
2017-11-07T21:34:03.731Z,41.88
2017-11-07T21:36:31.338Z,40.92
2017-11-07T21:38:58.947Z,45.63
2017-11-07T21:41:27.301Z,67.12
2017-11-07T21:43:54.876Z,51.17
2017-11-07T21:46:23.250Z,56.63
2017-11-07T21:48:50.827Z,64.25
2017-11-07T21:51:19.198Z,58.63
2017-11-07T21:53:47.562Z,51.85
2017-11-07T21:56:15.182Z,42.80
2017-11-07T21:58:42.745Z,45.25
2017-11-07T22:01:10.402Z,46.72
2017-11-07T22:03:37.992Z,36.85
2017-11-07T22:06:05.563Z,52.10
2017-11-07T22:08:33.155Z,52.97
2017-11-07T22:11:01.497Z,49.88
2017-11-07T22:13:29.096Z,40.35
2017-11-07T22:15:56.671Z,41.40
2017-11-07T22:18:25.022Z,57.47
2017-11-07T22:20:53.406Z,35.67
2017-11-07T22:23:25.862Z,41.58
2017-11-07T22:25:53.477Z,33.83
2017-11-07T22:28:21.813Z,49.60
2017-11-07T22:30:49.399Z,42.40
2017-11-07T22:33:17.761Z,40.00
2017-11-07T22:35:45.337Z,38.88
2017-11-07T22:38:12.933Z,44.97
2017-11-07T22:40:40.500Z,39.08
2017-11-07T22:43:08.110Z,50.78
2017-11-07T22:45:35.712Z,32.17
2017-11-07T22:48:04.090Z,52.35
2017-11-07T22:50:32.427Z,42.08
2017-11-07T22:53:00.037Z,39.92
2017-11-07T22:55:28.379Z,40.58
2017-11-07T22:57:55.951Z,40.28
2017-11-07T23:00:23.576Z,42.92
2017-11-07T23:02:51.149Z,41.85
2017-11-07T23:05:21.182Z,39.22
2017-11-07T23:07:48.756Z,45.05
2017-11-07T23:10:16.359Z,44.95
2017-11-07T23:12:43.935Z,38.05
2017-11-07T23:15:11.527Z,38.03
2017-11-07T23:17:39.099Z,52.17
2017-11-07T23:20:06.705Z,41.78
2017-11-07T23:22:34.275Z,40.90
2017-11-07T23:25:01.844Z,39.92
2017-11-07T23:27:29.422Z,37.65
2017-11-07T23:29:57.010Z,33.28
2017-11-07T23:32:24.610Z,41.03
2017-11-07T23:34:52.947Z,42.10
2017-11-07T23:37:20.539Z,35.08
2017-11-07T23:39:48.874Z,40.35
2017-11-07T23:42:16.492Z,41.65
2017-11-07T23:44:44.826Z,42.38
2017-11-07T23:47:12.382Z,41.45
2017-11-07T23:49:39.956Z,31.37
2017-11-07T23:52:07.513Z,41.15
2017-11-07T23:54:35.104Z,42.28
2017-11-07T23:57:02.661Z,51.63
2017-11-07T23:59:30.256Z,40.55
